createdAt,value
2023-04-13T00:00:48.190Z,64.95
2023-04-13T00:03:17.552Z,66.70
2023-04-13T00:05:46.372Z,54.78
2023-04-13T00:08:13.294Z,51.83
2023-04-13T00:10:41.894Z,59.20
2023-04-13T00:13:10.990Z,50.13
2023-04-13T00:15:41.963Z,57.17
2023-04-13T00:18:10.529Z,64.03
2023-04-13T00:20:41.821Z,65.10
2023-04-13T00:23:08.553Z,63.55
2023-04-13T00:25:35.094Z,70.90
2023-04-13T00:28:06.357Z,62.00
2023-04-13T00:30:33.310Z,55.53
2023-04-13T00:33:00.070Z,55.63
2023-04-13T00:35:26.784Z,55.05
2023-04-13T00:37:54.166Z,56.65
2023-04-13T00:40:20.869Z,53.92
2023-04-13T00:42:49.556Z,55.80
2023-04-13T00:45:18.149Z,55.60
2023-04-13T00:47:48.957Z,46.28
2023-04-13T00:50:20.709Z,47.92
2023-04-13T00:52:48.838Z,47.20
2023-04-13T00:55:21.128Z,46.67
2023-04-13T00:57:50.357Z,45.17
2023-04-13T01:00:17.857Z,44.05
2023-04-13T01:02:44.838Z,38.38
2023-04-13T01:05:15.254Z,44.15
2023-04-13T01:08:04.669Z,42.05
2023-04-13T01:11:05.877Z,41.55
2023-04-13T01:13:42.282Z,38.90
2023-04-13T01:16:20.701Z,40.25
2023-04-13T01:18:52.561Z,38.28
2023-04-13T01:21:22.995Z,40.08
2023-04-13T01:24:27.489Z,40.85
2023-04-13T01:27:20.898Z,37.17
2023-04-13T01:29:50.519Z,33.38
2023-04-13T01:32:17.842Z,34.35
2023-04-13T01:34:45.631Z,32.00
2023-04-13T01:37:12.710Z,32.95
2023-04-13T01:39:40.195Z,33.45
2023-04-13T01:42:06.803Z,33.95
2023-04-13T01:44:35.063Z,34.58
2023-04-13T01:47:16.128Z,33.85
2023-04-13T01:49:52.538Z,37.88
2023-04-13T01:52:20.958Z,39.47
2023-04-13T01:54:51.089Z,37.35
2023-04-13T01:57:18.138Z,38.75
2023-04-13T01:59:45.199Z,38.70
2023-04-13T02:02:16.627Z,38.75
2023-04-13T02:04:43.475Z,38.17
2023-04-13T02:07:12.365Z,38.28
2023-04-13T02:09:39.190Z,37.50
2023-04-13T02:12:06.083Z,41.22
2023-04-13T02:14:33.501Z,37.72
2023-04-13T02:17:00.106Z,38.67
2023-04-13T02:19:26.687Z,37.35
2023-04-13T02:21:53.524Z,38.45
2023-04-13T02:24:20.121Z,39.10
2023-04-13T02:26:46.788Z,37.15
2023-04-13T02:29:13.348Z,38.22
2023-04-13T02:31:44.098Z,37.70
2023-04-13T02:34:11.441Z,37.10
2023-04-13T02:36:38.660Z,34.90
2023-04-13T02:39:05.852Z,34.42
2023-04-13T02:41:32.420Z,34.05
2023-04-13T02:43:59.978Z,34.15
2023-04-13T02:46:28.086Z,34.88
2023-04-13T02:48:56.552Z,33.50
2023-04-13T02:51:23.121Z,33.55
2023-04-13T02:53:49.728Z,33.08
2023-04-13T02:56:16.916Z,32.78
2023-04-13T02:58:44.808Z,34.03
2023-04-13T03:01:11.467Z,33.50
2023-04-13T03:03:41.307Z,34.40
2023-04-13T03:06:08.464Z,32.45
2023-04-13T03:08:35.184Z,32.50
2023-04-13T03:11:01.736Z,33.17
2023-04-13T03:13:28.268Z,34.00
2023-04-13T03:15:54.837Z,34.08
2023-04-13T03:18:23.725Z,33.83
2023-04-13T03:20:50.376Z,34.70
2023-04-13T03:23:17.270Z,33.90
2023-04-13T03:25:43.818Z,33.97
2023-04-13T03:28:10.379Z,35.15
2023-04-13T03:30:37.100Z,34.72
2023-04-13T03:33:03.740Z,35.28
2023-04-13T03:35:30.339Z,34.90
2023-04-13T03:37:56.927Z,35.97
2023-04-13T03:40:23.557Z,36.88
2023-04-13T03:42:50.120Z,40.70
2023-04-13T03:45:18.176Z,42.25
2023-04-13T03:47:44.804Z,39.45
2023-04-13T03:50:11.475Z,40.15
2023-04-13T03:52:38.005Z,38.00
2023-04-13T03:55:05.331Z,36.53
2023-04-13T03:57:32.012Z,36.80
2023-04-13T03:59:58.568Z,36.25
2023-04-13T04:02:25.298Z,36.60
2023-04-13T04:04:52.116Z,35.33
2023-04-13T04:07:23.005Z,34.63
2023-04-13T04:09:49.920Z,35.65
2023-04-13T04:12:16.489Z,35.20
2023-04-13T04:14:43.050Z,35.95
2023-04-13T04:17:09.641Z,36.00
2023-04-13T04:19:37.124Z,35.50
2023-04-13T04:22:07.905Z,35.40
2023-04-13T04:24:34.627Z,35.58
2023-04-13T04:27:01.871Z,35.00
2023-04-13T04:29:34.553Z,33.35
2023-04-13T04:32:02.273Z,33.53
2023-04-13T04:34:29.322Z,34.70
2023-04-13T04:37:00.221Z,35.47
2023-04-13T04:39:33.011Z,38.78
2023-04-13T04:42:05.704Z,38.08
2023-04-13T04:44:32.290Z,37.90
2023-04-13T04:46:59.688Z,36.88
2023-04-13T04:49:28.185Z,37.65
2023-04-13T04:51:55.951Z,40.25
2023-04-13T04:54:22.528Z,39.05
2023-04-13T04:56:49.152Z,40.60
2023-04-13T04:59:15.727Z,40.45
2023-04-13T05:01:43.305Z,47.00
2023-04-13T05:04:10.781Z,50.05
2023-04-13T05:06:41.076Z,47.90
2023-04-13T05:09:08.829Z,49.45
2023-04-13T05:11:36.649Z,52.45
2023-04-13T05:14:03.451Z,57.75
2023-04-13T05:16:31.998Z,56.15
2023-04-13T05:18:59.073Z,49.35
2023-04-13T05:21:27.143Z,33.25
2023-04-13T05:23:53.809Z,30.73
2023-04-13T05:26:20.492Z,30.30
2023-04-13T05:28:47.079Z,29.27
2023-04-13T05:31:14.340Z,32.83
2023-04-13T05:33:41.091Z,33.90
2023-04-13T05:36:08.367Z,36.17
2023-04-13T05:38:34.945Z,36.92
2023-04-13T05:41:03.153Z,32.40
2023-04-13T05:43:29.725Z,30.85
2023-04-13T05:45:56.366Z,27.23
2023-04-13T05:48:22.934Z,27.58
2023-04-13T05:50:49.621Z,29.85
2023-04-13T05:53:16.252Z,29.77
2023-04-13T05:55:45.632Z,29.67
2023-04-13T05:58:13.414Z,31.33
2023-04-13T06:00:40.110Z,27.80
2023-04-13T06:03:07.672Z,24.13
2023-04-13T06:05:36.614Z,23.95
2023-04-13T06:08:03.438Z,25.58
2023-04-13T06:10:30.235Z,27.42
2023-04-13T06:12:57.030Z,27.65
2023-04-13T06:15:23.980Z,29.48
2023-04-13T06:17:53.932Z,27.05
2023-04-13T06:20:21.595Z,28.55
2023-04-13T06:22:48.823Z,27.27
2023-04-13T06:25:16.495Z,27.75
2023-04-13T06:27:44.035Z,28.92
2023-04-13T06:30:11.981Z,29.35
2023-04-13T06:32:38.800Z,27.20
2023-04-13T06:35:06.064Z,28.10
2023-04-13T06:37:35.540Z,27.25
2023-04-13T06:40:09.101Z,27.33
2023-04-13T06:42:36.692Z,25.08
2023-04-13T06:45:03.456Z,25.33
2023-04-13T06:47:30.033Z,25.25
2023-04-13T06:49:56.620Z,26.20
2023-04-13T06:52:23.236Z,25.98
2023-04-13T06:54:49.946Z,26.75
2023-04-13T06:57:17.557Z,28.00
2023-04-13T06:59:44.113Z,27.08
2023-04-13T07:02:10.793Z,28.40
2023-04-13T07:04:37.444Z,27.13
2023-04-13T07:07:04.232Z,27.30
2023-04-13T07:09:30.978Z,26.85
2023-04-13T07:11:58.104Z,27.83
2023-04-13T07:14:24.751Z,27.20
2023-04-13T07:16:51.378Z,27.55
2023-04-13T07:19:20.529Z,27.33
2023-04-13T07:21:47.345Z,28.30
2023-04-13T07:24:14.036Z,26.65
2023-04-13T07:26:41.206Z,30.38
2023-04-13T07:29:13.292Z,27.23
2023-04-13T07:31:39.941Z,28.05
2023-04-13T07:34:06.973Z,28.67
2023-04-13T07:36:33.621Z,28.65
2023-04-13T07:39:01.453Z,27.05
2023-04-13T07:41:28.200Z,28.15
2023-04-13T07:43:54.729Z,28.00
2023-04-13T07:46:26.972Z,26.98
2023-04-13T07:48:54.209Z,24.85
2023-04-13T07:51:21.061Z,26.40
2023-04-13T07:53:47.657Z,25.95
2023-04-13T07:56:15.222Z,26.90
2023-04-13T07:58:41.960Z,24.77
2023-04-13T08:01:09.391Z,25.17
2023-04-13T08:03:36.769Z,22.73
2023-04-13T08:06:07.721Z,23.67
2023-04-13T08:08:34.539Z,23.05
2023-04-13T08:11:01.482Z,23.50
2023-04-13T08:13:29.521Z,22.33
2023-04-13T08:16:00.504Z,21.00
2023-04-13T08:18:27.412Z,21.00
2023-04-13T08:20:55.112Z,21.33
2023-04-13T08:23:22.420Z,20.30
2023-04-13T08:25:49.016Z,20.13
2023-04-13T08:28:15.920Z,21.80
2023-04-13T08:30:43.073Z,19.88
2023-04-13T08:33:10.234Z,18.63
2023-04-13T08:35:39.264Z,19.75
2023-04-13T08:38:07.300Z,19.42
2023-04-13T08:40:38.925Z,18.08
2023-04-13T08:43:06.612Z,18.40
2023-04-13T08:45:34.318Z,18.27
2023-04-13T08:48:02.105Z,18.13
2023-04-13T08:50:29.047Z,18.00
2023-04-13T08:52:56.018Z,17.90
2023-04-13T08:55:22.769Z,17.85
2023-04-13T08:57:51.514Z,17.92
2023-04-13T09:00:19.514Z,16.90
2023-04-13T09:03:03.016Z,18.48
2023-04-13T09:05:34.491Z,17.75
2023-04-13T09:08:04.404Z,18.38
2023-04-13T09:10:31.110Z,17.67
2023-04-13T09:12:58.414Z,18.48
2023-04-13T09:15:25.101Z,18.75
2023-04-13T09:17:52.532Z,18.20
2023-04-13T09:20:23.070Z,16.00
2023-04-13T09:22:50.804Z,16.40
2023-04-13T09:25:24.431Z,15.65
2023-04-13T09:27:52.624Z,14.82
2023-04-13T09:30:24.668Z,14.80
2023-04-13T09:33:08.669Z,14.27
2023-04-13T09:35:36.656Z,15.13
2023-04-13T09:38:05.185Z,15.13
2023-04-13T09:40:32.483Z,14.40
2023-04-13T09:43:04.676Z,13.18
2023-04-13T09:45:39.784Z,14.27
2023-04-13T09:48:20.756Z,14.50
2023-04-13T09:50:59.402Z,14.48
2023-04-13T09:53:27.283Z,14.27
2023-04-13T09:55:59.261Z,14.25
2023-04-13T09:58:26.481Z,14.65
2023-04-13T10:00:53.505Z,14.10
2023-04-13T10:03:22.417Z,14.30
2023-04-13T10:08:27.220Z,14.73
2023-04-13T10:11:02.562Z,14.35
2023-04-13T10:13:37.910Z,14.48
2023-04-13T10:16:28.171Z,16.25
2023-04-13T10:19:03.027Z,15.98
2023-04-13T10:21:36.288Z,15.55
2023-04-13T10:24:11.451Z,15.02
2023-04-13T10:26:39.774Z,15.45
2023-04-13T10:29:07.961Z,16.35
2023-04-13T10:31:42.151Z,15.73
2023-04-13T10:36:44.001Z,17.55
2023-04-13T10:39:11.181Z,17.05
2023-04-13T10:41:37.993Z,17.50
2023-04-13T10:44:07.573Z,16.48
2023-04-13T10:46:35.417Z,17.35
2023-04-13T10:49:03.875Z,15.73
2023-04-13T10:51:44.046Z,16.17
2023-04-13T10:54:12.918Z,17.63
2023-04-13T10:56:40.436Z,15.88
2023-04-13T10:59:07.153Z,17.42
2023-04-13T11:01:35.784Z,16.70
2023-04-13T11:04:05.839Z,17.02
2023-04-13T11:06:38.523Z,15.98
2023-04-13T11:09:07.359Z,16.95
2023-04-13T11:11:36.508Z,17.02
2023-04-13T11:14:03.911Z,16.80
2023-04-13T11:16:30.948Z,17.15
2023-04-13T11:19:05.107Z,16.80
2023-04-13T11:21:35.719Z,16.73
2023-04-13T11:24:02.748Z,17.80
2023-04-13T11:26:38.622Z,16.65
2023-04-13T11:29:06.519Z,16.63
2023-04-13T11:31:41.004Z,17.45
2023-04-13T11:34:09.841Z,16.00
2023-04-13T11:36:38.996Z,15.07
2023-04-13T11:39:10.764Z,15.70
2023-04-13T11:41:41.670Z,14.57
2023-04-13T11:44:08.439Z,14.30
2023-04-13T11:46:35.077Z,13.32
2023-04-13T11:49:02.312Z,14.70
2023-04-13T11:51:29.349Z,16.45
2023-04-13T11:53:56.241Z,14.82
2023-04-13T11:56:23.287Z,14.43
2023-04-13T11:58:51.597Z,14.48
2023-04-13T12:01:25.637Z,14.27
2023-04-13T12:04:13.878Z,15.02
2023-04-13T12:06:47.353Z,16.67
2023-04-13T12:09:17.882Z,15.02
2023-04-13T12:11:51.960Z,14.80
2023-04-13T12:19:28.023Z,15.35
2023-04-13T12:21:57.358Z,15.27
2023-04-13T12:24:37.741Z,15.57
2023-04-13T12:29:39.426Z,15.85
2023-04-13T12:32:13.915Z,14.48
2023-04-13T12:34:43.996Z,17.13
2023-04-13T12:37:11.545Z,17.17
2023-04-13T12:39:38.281Z,15.43
2023-04-13T12:42:05.237Z,15.50
2023-04-13T12:44:33.832Z,15.50
2023-04-13T12:47:01.192Z,14.60
2023-04-13T12:49:27.859Z,18.80
2023-04-13T12:51:54.460Z,15.38
2023-04-13T12:54:21.081Z,14.20
2023-04-13T12:56:47.656Z,14.63
2023-04-13T12:59:14.299Z,14.40
2023-04-13T13:01:40.901Z,13.77
2023-04-13T13:04:07.776Z,13.73
2023-04-13T13:06:34.560Z,13.13
2023-04-13T13:09:01.424Z,13.25
2023-04-13T13:11:28.460Z,13.70
2023-04-13T13:13:55.235Z,13.50
2023-04-13T13:16:22.206Z,12.68
2023-04-13T13:18:51.259Z,12.85
2023-04-13T13:21:19.309Z,12.48
2023-04-13T13:23:46.266Z,12.73
2023-04-13T13:26:23.719Z,12.52
2023-04-13T13:28:52.004Z,11.95
2023-04-13T13:31:19.187Z,12.30
2023-04-13T13:33:45.953Z,15.30
2023-04-13T13:36:14.532Z,12.88
2023-04-13T13:38:42.993Z,12.35
2023-04-13T13:41:09.869Z,12.82
2023-04-13T13:43:36.394Z,12.52
2023-04-13T13:46:05.528Z,11.38
2023-04-13T13:48:32.326Z,14.38
2023-04-13T13:50:58.890Z,12.80
2023-04-13T13:53:25.466Z,13.35
2023-04-13T13:55:54.423Z,11.95
2023-04-13T13:58:21.069Z,13.13
2023-04-13T14:00:47.808Z,12.00
2023-04-13T14:03:16.523Z,12.50
2023-04-13T14:05:43.452Z,13.73
2023-04-13T14:08:10.578Z,12.38
2023-04-13T14:10:37.310Z,12.73
2023-04-13T14:13:04.012Z,13.65
2023-04-13T14:15:31.080Z,12.18
2023-04-13T14:18:09.889Z,11.85
2023-04-13T14:20:39.211Z,13.48
2023-04-13T14:23:06.551Z,13.15
2023-04-13T14:25:33.128Z,13.32
2023-04-13T14:27:59.695Z,13.68
2023-04-13T14:30:27.946Z,12.82
2023-04-13T14:32:55.056Z,13.77
2023-04-13T14:35:21.919Z,12.55
2023-04-13T14:37:48.560Z,13.00
2023-04-13T14:40:17.127Z,13.15
2023-04-13T14:42:44.017Z,13.93
2023-04-13T14:45:12.458Z,13.32
2023-04-13T14:47:40.132Z,12.70
2023-04-13T14:50:08.440Z,13.48
2023-04-13T14:52:37.178Z,13.85
2023-04-13T14:55:04.383Z,14.10
2023-04-13T14:57:31.478Z,13.95
2023-04-13T14:59:58.026Z,13.73
2023-04-13T15:02:24.725Z,15.20
2023-04-13T15:04:51.700Z,15.43
2023-04-13T15:07:18.980Z,14.95
2023-04-13T15:09:45.659Z,16.45
2023-04-13T15:12:13.746Z,15.32
2023-04-13T15:14:41.074Z,15.70
2023-04-13T15:17:08.707Z,15.52
2023-04-13T15:19:35.377Z,15.90
2023-04-13T15:22:02.065Z,15.70
2023-04-13T15:24:28.683Z,17.48
2023-04-13T15:26:55.432Z,21.30
2023-04-13T15:29:22.042Z,17.80
2023-04-13T15:31:48.712Z,17.85
2023-04-13T15:34:15.435Z,17.75
2023-04-13T15:36:42.536Z,17.98
2023-04-13T15:39:09.141Z,19.15
2023-04-13T15:41:35.936Z,19.10
2023-04-13T15:44:03.378Z,19.10
2023-04-13T15:46:30.195Z,19.15
2023-04-13T15:48:56.861Z,18.83
2023-04-13T15:51:23.542Z,18.50
2023-04-13T15:53:50.221Z,20.63
2023-04-13T15:56:18.153Z,22.08
2023-04-13T15:58:44.786Z,20.98
2023-04-13T16:01:11.899Z,20.80
2023-04-13T16:03:40.349Z,21.08
2023-04-13T16:06:07.885Z,22.23
2023-04-13T16:08:34.790Z,23.50
2023-04-13T16:11:01.541Z,23.45
2023-04-13T16:13:41.442Z,25.95
2023-04-13T16:16:15.305Z,28.05
2023-04-13T16:18:42.026Z,30.10
2023-04-13T16:21:11.050Z,31.42
2023-04-13T16:23:38.361Z,31.02
2023-04-13T16:26:05.221Z,35.00
2023-04-13T16:28:31.971Z,38.63
2023-04-13T16:30:59.152Z,35.78
2023-04-13T16:33:25.911Z,34.45
2023-04-13T16:35:52.658Z,35.50
2023-04-13T16:38:19.358Z,37.25
2023-04-13T16:40:46.009Z,39.97
2023-04-13T16:43:13.388Z,40.20
2023-04-13T16:45:40.160Z,41.22
2023-04-13T16:48:07.035Z,43.60
2023-04-13T16:50:33.853Z,52.20
2023-04-13T16:53:01.272Z,56.08
2023-04-13T16:55:29.153Z,70.88
2023-04-13T16:57:56.132Z,79.78
2023-04-13T17:00:23.329Z,77.60
2023-04-13T17:02:50.284Z,73.15
2023-04-13T17:05:17.339Z,72.07
2023-04-13T17:07:47.030Z,80.45
2023-04-13T17:10:14.580Z,85.20
2023-04-13T17:12:41.825Z,93.68
2023-04-13T17:15:10.053Z,79.75
2023-04-13T17:17:38.212Z,72.97
2023-04-13T17:20:06.558Z,87.32
2023-04-13T17:22:34.453Z,79.72
2023-04-13T17:25:01.240Z,81.75
2023-04-13T17:27:27.890Z,90.50
2023-04-13T17:29:54.870Z,83.28
2023-04-13T17:32:24.083Z,84.60
2023-04-13T17:34:50.716Z,86.53
2023-04-13T17:37:17.863Z,94.20
2023-04-13T17:39:47.679Z,90.00
2023-04-13T17:42:15.257Z,101.63
2023-04-13T17:44:42.852Z,88.22
2023-04-13T17:47:09.516Z,86.53
2023-04-13T17:49:37.008Z,92.93
2023-04-13T17:52:03.997Z,77.13
2023-04-13T17:54:30.664Z,67.35
2023-04-13T17:56:57.336Z,64.95
2023-04-13T17:59:23.887Z,57.85
2023-04-13T18:01:54.513Z,53.92
2023-04-13T18:04:21.475Z,52.17
2023-04-13T18:06:48.659Z,47.00
2023-04-13T18:09:15.682Z,40.08
2023-04-13T18:11:42.291Z,33.88
2023-04-13T18:14:12.392Z,31.88
2023-04-13T18:16:39.242Z,29.73
2023-04-13T18:19:06.219Z,32.45
2023-04-13T18:21:32.929Z,28.60
2023-04-13T18:24:02.829Z,28.27
2023-04-13T18:26:29.832Z,29.98
2023-04-13T18:28:56.430Z,26.70
2023-04-13T18:31:23.300Z,29.10
2023-04-13T18:33:49.894Z,29.88
2023-04-13T18:36:17.571Z,30.17
2023-04-13T18:38:45.311Z,30.00
2023-04-13T18:41:12.764Z,31.50
2023-04-13T18:43:39.764Z,31.90
2023-04-13T18:46:07.742Z,30.92
2023-04-13T18:48:34.743Z,31.70
2023-04-13T18:51:02.854Z,30.52
2023-04-13T18:53:29.457Z,30.27
2023-04-13T18:55:58.142Z,30.17
2023-04-13T18:58:24.721Z,29.40
2023-04-13T19:00:51.328Z,26.23
2023-04-13T19:03:17.964Z,29.20
2023-04-13T19:05:44.601Z,29.85
2023-04-13T19:08:13.355Z,27.20
2023-04-13T19:10:40.148Z,26.85
2023-04-13T19:13:06.688Z,28.67
2023-04-13T19:15:33.262Z,27.13
2023-04-13T19:18:03.571Z,25.33
2023-04-13T19:20:30.337Z,24.88
2023-04-13T19:22:56.945Z,25.38
2023-04-13T19:25:23.528Z,25.95
2023-04-13T19:27:50.335Z,24.48
2023-04-13T19:30:18.609Z,24.73
2023-04-13T19:32:46.839Z,25.33
2023-04-13T19:35:13.973Z,27.05
2023-04-13T19:37:42.367Z,26.35
2023-04-13T19:40:10.005Z,26.10
2023-04-13T19:42:37.601Z,25.58
2023-04-13T19:45:04.568Z,25.42
2023-04-13T19:47:31.201Z,24.73
2023-04-13T19:49:57.813Z,24.52
2023-04-13T19:52:25.272Z,25.48
2023-04-13T19:54:54.203Z,25.65
2023-04-13T19:57:20.802Z,25.77
2023-04-13T19:59:47.478Z,26.35
2023-04-13T20:02:14.316Z,26.70
2023-04-13T20:04:41.227Z,26.60
2023-04-13T20:07:07.911Z,26.23
2023-04-13T20:09:34.516Z,26.45
2023-04-13T20:12:01.654Z,26.13
2023-04-13T20:14:28.203Z,25.02
2023-04-13T20:16:54.833Z,23.95
2023-04-13T20:19:22.935Z,24.13
2023-04-13T20:21:51.308Z,21.83
2023-04-13T20:24:19.253Z,25.48
2023-04-13T20:26:46.959Z,23.63
2023-04-13T20:29:16.652Z,23.02
2023-04-13T20:31:43.316Z,22.75
2023-04-13T20:34:12.057Z,24.55
2023-04-13T20:36:38.648Z,22.70
2023-04-13T20:39:05.902Z,25.10
2023-04-13T20:41:34.849Z,24.23
2023-04-13T20:44:02.859Z,24.95
2023-04-13T20:46:34.880Z,24.90
2023-04-13T20:49:02.717Z,26.35
2023-04-13T20:51:33.317Z,27.70
2023-04-13T20:54:01.741Z,29.13
2023-04-13T20:56:29.977Z,31.23
2023-04-13T20:58:58.024Z,33.55
2023-04-13T21:01:25.531Z,35.22
2023-04-13T21:03:52.874Z,39.47
2023-04-13T21:06:19.925Z,47.25
2023-04-13T21:08:46.555Z,55.17
2023-04-13T21:11:13.167Z,64.03
2023-04-13T21:13:39.922Z,77.60
2023-04-13T21:16:08.572Z,90.63
2023-04-13T21:18:35.392Z,97.93
2023-04-13T21:21:01.925Z,107.00
2023-04-13T21:23:28.653Z,114.75
2023-04-13T21:25:55.235Z,120.85
2023-04-13T21:28:21.785Z,131.70
2023-04-13T21:30:48.348Z,140.40
2023-04-13T21:33:14.930Z,141.38
2023-04-13T21:35:41.516Z,144.65
2023-04-13T21:38:08.088Z,140.38
2023-04-13T21:40:35.967Z,136.70
2023-04-13T21:43:03.154Z,140.07
2023-04-13T21:45:29.731Z,132.43
2023-04-13T21:47:56.388Z,133.60
2023-04-13T21:50:23.067Z,136.20
2023-04-13T21:52:49.675Z,134.85
2023-04-13T21:55:19.794Z,127.75
2023-04-13T21:57:49.579Z,123.40
2023-04-13T22:00:18.030Z,117.72
2023-04-13T22:02:44.768Z,118.30
2023-04-13T22:05:11.632Z,108.80
2023-04-13T22:07:43.016Z,109.35
2023-04-13T22:10:11.100Z,100.30
2023-04-13T22:12:38.039Z,94.97
2023-04-13T22:15:05.097Z,90.25
2023-04-13T22:17:32.172Z,82.18
2023-04-13T22:19:58.797Z,80.30
2023-04-13T22:22:25.536Z,78.35
2023-04-13T22:24:53.120Z,78.47
2023-04-13T22:27:19.763Z,78.00
2023-04-13T22:29:47.496Z,73.43
2023-04-13T22:32:15.072Z,69.63
2023-04-13T22:34:41.969Z,63.35
2023-04-13T22:37:10.386Z,66.38
2023-04-13T22:39:37.452Z,65.30
2023-04-13T22:42:04.260Z,58.47
2023-04-13T22:44:34.474Z,57.50
2023-04-13T22:47:02.368Z,55.05
2023-04-13T22:49:30.669Z,56.10
2023-04-13T22:51:57.315Z,58.10
2023-04-13T22:54:24.327Z,56.33
2023-04-13T22:56:51.375Z,58.38
2023-04-13T22:59:18.288Z,53.38
2023-04-13T23:01:45.027Z,49.50
2023-04-13T23:04:14.186Z,49.85
2023-04-13T23:06:42.389Z,48.15
2023-04-13T23:09:09.080Z,48.08
2023-04-13T23:11:35.654Z,47.55
2023-04-13T23:14:04.619Z,47.63
2023-04-13T23:16:31.350Z,46.80
2023-04-13T23:18:58.261Z,46.00
2023-04-13T23:21:27.714Z,45.30
2023-04-13T23:23:54.635Z,45.22
2023-04-13T23:26:21.211Z,41.55
2023-04-13T23:28:47.825Z,41.33
2023-04-13T23:31:14.460Z,40.55
2023-04-13T23:33:41.051Z,38.72
2023-04-13T23:36:08.376Z,38.92
2023-04-13T23:38:35.018Z,40.50
2023-04-13T23:41:01.630Z,39.70
2023-04-13T23:43:28.367Z,40.95
2023-04-13T23:45:55.021Z,42.58
2023-04-13T23:48:22.896Z,42.88
2023-04-13T23:50:49.632Z,42.28
2023-04-13T23:53:20.032Z,41.65
2023-04-13T23:55:46.990Z,42.35
2023-04-13T23:58:13.603Z,45.72
